sensor_id;sensor_type;location;lat;lon;timestamp;P1;durP1;ratioP1;P2;durP2;ratioP2
36279;SDS011;22317;47.936;12.742;2023-02-15T00:01:46;0.00;;;0.00;;
36279;SDS011;22317;47.936;12.742;2023-02-15T00:04:13;0.00;;;0.00;;
36279;SDS011;22317;47.936;12.742;2023-02-15T00:06:40;0.00;;;0.00;;
36279;SDS011;22317;47.936;12.742;2023-02-15T00:09:06;0.00;;;0.00;;
36279;SDS011;22317;47.936;12.742;2023-02-15T00:11:32;0.00;;;0.00;;
36279;SDS011;22317;47.936;12.742;2023-02-15T00:14:20;0.00;;;0.00;;
36279;SDS011;22317;47.936;12.742;2023-02-15T00:16:48;0.00;;;0.00;;
36279;SDS011;22317;47.936;12.742;2023-02-15T00:19:17;0.20;;;0.10;;
36279;SDS011;22317;47.936;12.742;2023-02-15T00:21:44;0.00;;;0.00;;
36279;SDS011;22317;47.936;12.742;2023-02-15T00:24:11;0.17;;;0.10;;
36279;SDS011;22317;47.936;12.742;2023-02-15T00:26:38;0.00;;;0.00;;
36279;SDS011;22317;47.936;12.742;2023-02-15T00:29:05;0.00;;;0.00;;
36279;SDS011;22317;47.936;12.742;2023-02-15T00:31:32;0.20;;;0.20;;
36279;SDS011;22317;47.936;12.742;2023-02-15T00:36:42;0.00;;;0.00;;
36279;SDS011;22317;47.936;12.742;2023-02-15T00:39:09;0.00;;;0.00;;
36279;SDS011;22317;47.936;12.742;2023-02-15T00:41:35;0.00;;;0.00;;
36279;SDS011;22317;47.936;12.742;2023-02-15T00:44:00;0.00;;;0.00;;
36279;SDS011;22317;47.936;12.742;2023-02-15T00:46:28;0.00;;;0.00;;
36279;SDS011;22317;47.936;12.742;2023-02-15T00:48:54;0.10;;;0.10;;
36279;SDS011;22317;47.936;12.742;2023-02-15T00:51:20;0.00;;;0.00;;
36279;SDS011;22317;47.936;12.742;2023-02-15T00:53:46;0.10;;;0.10;;
36279;SDS011;22317;47.936;12.742;2023-02-15T00:56:12;0.20;;;0.20;;
36279;SDS011;22317;47.936;12.742;2023-02-15T00:58:38;0.00;;;0.00;;
36279;SDS011;22317;47.936;12.742;2023-02-15T01:01:05;0.17;;;0.17;;
36279;SDS011;22317;47.936;12.742;2023-02-15T01:03:33;0.00;;;0.00;;
36279;SDS011;22317;47.936;12.742;2023-02-15T01:05:59;0.10;;;0.10;;
36279;SDS011;22317;47.936;12.742;2023-02-15T01:08:25;0.00;;;0.00;;
36279;SDS011;22317;47.936;12.742;2023-02-15T01:10:52;0.00;;;0.00;;
36279;SDS011;22317;47.936;12.742;2023-02-15T01:13:18;0.07;;;0.00;;
36279;SDS011;22317;47.936;12.742;2023-02-15T01:15:44;0.07;;;0.07;;
36279;SDS011;22317;47.936;12.742;2023-02-15T01:18:10;0.13;;;0.13;;
36279;SDS011;22317;47.936;12.742;2023-02-15T01:20:37;0.00;;;0.00;;
36279;SDS011;22317;47.936;12.742;2023-02-15T01:23:06;0.10;;;0.10;;
36279;SDS011;22317;47.936;12.742;2023-02-15T01:25:33;0.00;;;0.00;;
36279;SDS011;22317;47.936;12.742;2023-02-15T01:28:00;0.10;;;0.10;;
36279;SDS011;22317;47.936;12.742;2023-02-15T01:30:26;0.00;;;0.00;;
36279;SDS011;22317;47.936;12.742;2023-02-15T01:32:52;0.00;;;0.00;;
36279;SDS011;22317;47.936;12.742;2023-02-15T01:35:18;0.00;;;0.00;;
36279;SDS011;22317;47.936;12.742;2023-02-15T01:37:44;0.00;;;0.00;;
36279;SDS011;22317;47.936;12.742;2023-02-15T01:40:14;0.10;;;0.10;;
36279;SDS011;22317;47.936;12.742;2023-02-15T01:42:43;0.10;;;0.10;;
36279;SDS011;22317;47.936;12.742;2023-02-15T01:47:47;0.20;;;0.20;;
36279;SDS011;22317;47.936;12.742;2023-02-15T01:50:33;0.00;;;0.00;;
36279;SDS011;22317;47.936;12.742;2023-02-15T01:53:07;0.33;;;0.33;;
36279;SDS011;22317;47.936;12.742;2023-02-15T01:55:36;0.00;;;0.00;;
36279;SDS011;22317;47.936;12.742;2023-02-15T01:58:06;0.00;;;0.00;;
36279;SDS011;22317;47.936;12.742;2023-02-15T02:00:33;0.30;;;0.30;;
36279;SDS011;22317;47.936;12.742;2023-02-15T02:03:00;0.50;;;0.50;;
36279;SDS011;22317;47.936;12.742;2023-02-15T02:05:27;0.30;;;0.20;;
36279;SDS011;22317;47.936;12.742;2023-02-15T02:07:54;0.40;;;0.20;;
36279;SDS011;22317;47.936;12.742;2023-02-15T02:10:23;0.10;;;0.10;;
36279;SDS011;22317;47.936;12.742;2023-02-15T02:12:52;0.20;;;0.20;;
36279;SDS011;22317;47.936;12.742;2023-02-15T02:15:28;0.00;;;0.00;;
36279;SDS011;22317;47.936;12.742;2023-02-15T02:32:51;0.00;;;0.00;;
36279;SDS011;22317;47.936;12.742;2023-02-15T02:38:46;0.30;;;0.30;;
36279;SDS011;22317;47.936;12.742;2023-02-15T02:44:04;0.27;;;0.27;;
36279;SDS011;22317;47.936;12.742;2023-02-15T02:49:35;0.40;;;0.33;;
36279;SDS011;22317;47.936;12.742;2023-02-15T02:52:04;0.23;;;0.23;;
36279;SDS011;22317;47.936;12.742;2023-02-15T02:54:50;0.00;;;0.00;;
36279;SDS011;22317;47.936;12.742;2023-02-15T02:57:16;0.30;;;0.20;;
36279;SDS011;22317;47.936;12.742;2023-02-15T02:59:44;0.20;;;0.20;;
36279;SDS011;22317;47.936;12.742;2023-02-15T03:02:16;0.30;;;0.30;;
36279;SDS011;22317;47.936;12.742;2023-02-15T03:04:47;0.00;;;0.00;;
36279;SDS011;22317;47.936;12.742;2023-02-15T03:07:23;0.37;;;0.30;;
36279;SDS011;22317;47.936;12.742;2023-02-15T03:09:54;0.00;;;0.00;;
36279;SDS011;22317;47.936;12.742;2023-02-15T03:14:55;0.00;;;0.00;;
36279;SDS011;22317;47.936;12.742;2023-02-15T03:17:27;0.00;;;0.00;;
36279;SDS011;22317;47.936;12.742;2023-02-15T03:20:00;0.40;;;0.30;;
36279;SDS011;22317;47.936;12.742;2023-02-15T03:22:33;0.10;;;0.10;;
36279;SDS011;22317;47.936;12.742;2023-02-15T03:25:06;0.10;;;0.10;;
36279;SDS011;22317;47.936;12.742;2023-02-15T03:27:42;0.50;;;0.50;;
36279;SDS011;22317;47.936;12.742;2023-02-15T03:30:12;0.10;;;0.10;;
36279;SDS011;22317;47.936;12.742;2023-02-15T03:32:40;0.30;;;0.20;;
36279;SDS011;22317;47.936;12.742;2023-02-15T03:35:08;0.00;;;0.00;;
36279;SDS011;22317;47.936;12.742;2023-02-15T03:37:47;0.10;;;0.00;;
36279;SDS011;22317;47.936;12.742;2023-02-15T03:40:20;0.20;;;0.10;;
36279;SDS011;22317;47.936;12.742;2023-02-15T03:46:25;0.03;;;0.00;;
36279;SDS011;22317;47.936;12.742;2023-02-15T03:49:00;0.17;;;0.00;;
36279;SDS011;22317;47.936;12.742;2023-02-15T03:51:28;0.00;;;0.00;;
36279;SDS011;22317;47.936;12.742;2023-02-15T03:54:04;0.10;;;0.10;;
36279;SDS011;22317;47.936;12.742;2023-02-15T03:56:35;0.57;;;0.30;;
36279;SDS011;22317;47.936;12.742;2023-02-15T03:59:03;0.00;;;0.00;;
36279;SDS011;22317;47.936;12.742;2023-02-15T04:02:14;0.00;;;0.00;;
36279;SDS011;22317;47.936;12.742;2023-02-15T04:04:49;0.00;;;0.00;;
36279;SDS011;22317;47.936;12.742;2023-02-15T04:07:15;0.00;;;0.00;;
36279;SDS011;22317;47.936;12.742;2023-02-15T04:09:40;0.00;;;0.00;;
36279;SDS011;22317;47.936;12.742;2023-02-15T04:12:25;0.17;;;0.10;;
36279;SDS011;22317;47.936;12.742;2023-02-15T04:14:51;0.07;;;0.07;;
36279;SDS011;22317;47.936;12.742;2023-02-15T04:17:36;0.03;;;0.00;;
36279;SDS011;22317;47.936;12.742;2023-02-15T04:20:02;0.10;;;0.00;;
36279;SDS011;22317;47.936;12.742;2023-02-15T04:22:47;0.10;;;0.00;;
36279;SDS011;22317;47.936;12.742;2023-02-15T04:25:31;0.13;;;0.13;;
36279;SDS011;22317;47.936;12.742;2023-02-15T04:27:57;0.00;;;0.00;;
36279;SDS011;22317;47.936;12.742;2023-02-15T04:30:23;0.10;;;0.10;;
36279;SDS011;22317;47.936;12.742;2023-02-15T04:32:50;0.00;;;0.00;;
36279;SDS011;22317;47.936;12.742;2023-02-15T04:35:16;0.23;;;0.13;;
36279;SDS011;22317;47.936;12.742;2023-02-15T04:37:42;0.00;;;0.00;;
36279;SDS011;22317;47.936;12.742;2023-02-15T04:40:09;0.00;;;0.00;;
36279;SDS011;22317;47.936;12.742;2023-02-15T04:42:37;0.20;;;0.20;;
36279;SDS011;22317;47.936;12.742;2023-02-15T04:45:03;0.00;;;0.00;;
36279;SDS011;22317;47.936;12.742;2023-02-15T04:47:29;0.10;;;0.10;;
36279;SDS011;22317;47.936;12.742;2023-02-15T04:49:55;0.10;;;0.10;;
36279;SDS011;22317;47.936;12.742;2023-02-15T04:52:21;0.00;;;0.00;;
36279;SDS011;22317;47.936;12.742;2023-02-15T04:54:47;0.00;;;0.00;;
36279;SDS011;22317;47.936;12.742;2023-02-15T04:57:13;0.00;;;0.00;;
36279;SDS011;22317;47.936;12.742;2023-02-15T04:59:39;0.00;;;0.00;;
36279;SDS011;22317;47.936;12.742;2023-02-15T05:02:04;0.00;;;0.00;;
36279;SDS011;22317;47.936;12.742;2023-02-15T05:04:30;0.00;;;0.00;;
36279;SDS011;22317;47.936;12.742;2023-02-15T05:06:56;0.00;;;0.00;;
36279;SDS011;22317;47.936;12.742;2023-02-15T05:09:22;0.00;;;0.00;;
36279;SDS011;22317;47.936;12.742;2023-02-15T05:11:48;0.10;;;0.00;;
36279;SDS011;22317;47.936;12.742;2023-02-15T05:14:13;0.00;;;0.00;;
36279;SDS011;22317;47.936;12.742;2023-02-15T05:16:39;0.00;;;0.00;;
36279;SDS011;22317;47.936;12.742;2023-02-15T05:19:05;0.00;;;0.00;;
36279;SDS011;22317;47.936;12.742;2023-02-15T05:21:31;0.17;;;0.07;;
36279;SDS011;22317;47.936;12.742;2023-02-15T05:23:57;0.00;;;0.00;;
36279;SDS011;22317;47.936;12.742;2023-02-15T05:26:24;0.10;;;0.10;;
36279;SDS011;22317;47.936;12.742;2023-02-15T05:29:09;0.00;;;0.00;;
36279;SDS011;22317;47.936;12.742;2023-02-15T05:31:35;0.00;;;0.00;;
36279;SDS011;22317;47.936;12.742;2023-02-15T05:34:02;0.10;;;0.10;;
36279;SDS011;22317;47.936;12.742;2023-02-15T05:36:28;0.10;;;0.10;;
36279;SDS011;22317;47.936;12.742;2023-02-15T05:38:54;0.00;;;0.00;;
36279;SDS011;22317;47.936;12.742;2023-02-15T05:41:20;0.10;;;0.10;;
36279;SDS011;22317;47.936;12.742;2023-02-15T05:43:46;0.10;;;0.10;;
36279;SDS011;22317;47.936;12.742;2023-02-15T05:46:12;0.00;;;0.00;;
36279;SDS011;22317;47.936;12.742;2023-02-15T05:48:38;0.00;;;0.00;;
36279;SDS011;22317;47.936;12.742;2023-02-15T05:53:35;0.00;;;0.00;;
36279;SDS011;22317;47.936;12.742;2023-02-15T05:56:03;0.07;;;0.07;;
36279;SDS011;22317;47.936;12.742;2023-02-15T05:58:31;0.00;;;0.00;;
36279;SDS011;22317;47.936;12.742;2023-02-15T06:00:59;0.10;;;0.10;;
36279;SDS011;22317;47.936;12.742;2023-02-15T06:03:25;0.00;;;0.00;;
36279;SDS011;22317;47.936;12.742;2023-02-15T06:05:53;0.00;;;0.00;;
36279;SDS011;22317;47.936;12.742;2023-02-15T06:08:19;0.00;;;0.00;;
36279;SDS011;22317;47.936;12.742;2023-02-15T06:10:45;0.00;;;0.00;;
36279;SDS011;22317;47.936;12.742;2023-02-15T06:13:11;0.00;;;0.00;;
36279;SDS011;22317;47.936;12.742;2023-02-15T06:15:37;0.00;;;0.00;;
36279;SDS011;22317;47.936;12.742;2023-02-15T06:18:03;0.00;;;0.00;;
36279;SDS011;22317;47.936;12.742;2023-02-15T06:20:29;0.00;;;0.00;;
36279;SDS011;22317;47.936;12.742;2023-02-15T06:22:55;0.00;;;0.00;;
36279;SDS011;22317;47.936;12.742;2023-02-15T06:25:20;0.00;;;0.00;;
36279;SDS011;22317;47.936;12.742;2023-02-15T06:27:46;0.00;;;0.00;;
36279;SDS011;22317;47.936;12.742;2023-02-15T06:30:12;0.00;;;0.00;;
36279;SDS011;22317;47.936;12.742;2023-02-15T06:32:38;0.00;;;0.00;;
36279;SDS011;22317;47.936;12.742;2023-02-15T06:35:05;0.00;;;0.00;;
36279;SDS011;22317;47.936;12.742;2023-02-15T06:37:31;0.00;;;0.00;;
36279;SDS011;22317;47.936;12.742;2023-02-15T06:39:57;0.00;;;0.00;;
36279;SDS011;22317;47.936;12.742;2023-02-15T06:42:23;0.00;;;0.00;;
36279;SDS011;22317;47.936;12.742;2023-02-15T06:44:49;0.00;;;0.00;;
36279;SDS011;22317;47.936;12.742;2023-02-15T06:47:15;0.00;;;0.00;;
36279;SDS011;22317;47.936;12.742;2023-02-15T06:49:41;0.00;;;0.00;;
36279;SDS011;22317;47.936;12.742;2023-02-15T06:52:07;0.00;;;0.00;;
36279;SDS011;22317;47.936;12.742;2023-02-15T06:54:33;0.00;;;0.00;;
36279;SDS011;22317;47.936;12.742;2023-02-15T06:56:58;0.00;;;0.00;;
36279;SDS011;22317;47.936;12.742;2023-02-15T06:59:24;0.00;;;0.00;;
36279;SDS011;22317;47.936;12.742;2023-02-15T07:01:50;0.10;;;0.07;;
36279;SDS011;22317;47.936;12.742;2023-02-15T07:04:16;0.10;;;0.10;;
36279;SDS011;22317;47.936;12.742;2023-02-15T07:06:41;0.00;;;0.00;;
36279;SDS011;22317;47.936;12.742;2023-02-15T07:09:07;0.00;;;0.00;;
36279;SDS011;22317;47.936;12.742;2023-02-15T07:11:33;0.00;;;0.00;;
36279;SDS011;22317;47.936;12.742;2023-02-15T07:14:18;0.30;;;0.20;;
36279;SDS011;22317;47.936;12.742;2023-02-15T07:16:44;0.00;;;0.00;;
36279;SDS011;22317;47.936;12.742;2023-02-15T07:19:09;0.00;;;0.00;;
36279;SDS011;22317;47.936;12.742;2023-02-15T07:21:35;0.00;;;0.00;;
36279;SDS011;22317;47.936;12.742;2023-02-15T07:24:02;0.00;;;0.00;;
36279;SDS011;22317;47.936;12.742;2023-02-15T07:26:28;0.00;;;0.00;;
36279;SDS011;22317;47.936;12.742;2023-02-15T07:28:53;0.00;;;0.00;;
36279;SDS011;22317;47.936;12.742;2023-02-15T07:31:19;0.00;;;0.00;;
36279;SDS011;22317;47.936;12.742;2023-02-15T07:33:45;0.00;;;0.00;;
36279;SDS011;22317;47.936;12.742;2023-02-15T07:36:11;0.00;;;0.00;;
36279;SDS011;22317;47.936;12.742;2023-02-15T07:38:38;0.00;;;0.00;;
36279;SDS011;22317;47.936;12.742;2023-02-15T07:41:09;0.00;;;0.00;;
36279;SDS011;22317;47.936;12.742;2023-02-15T07:43:40;0.00;;;0.00;;
36279;SDS011;22317;47.936;12.742;2023-02-15T07:46:08;0.00;;;0.00;;
36279;SDS011;22317;47.936;12.742;2023-02-15T07:48:37;0.00;;;0.00;;
36279;SDS011;22317;47.936;12.742;2023-02-15T07:51:04;0.00;;;0.00;;
36279;SDS011;22317;47.936;12.742;2023-02-15T07:53:31;0.00;;;0.00;;
36279;SDS011;22317;47.936;12.742;2023-02-15T07:55:58;0.00;;;0.00;;
36279;SDS011;22317;47.936;12.742;2023-02-15T07:58:24;0.00;;;0.00;;
36279;SDS011;22317;47.936;12.742;2023-02-15T08:01:10;0.00;;;0.00;;
36279;SDS011;22317;47.936;12.742;2023-02-15T08:03:36;0.00;;;0.00;;
36279;SDS011;22317;47.936;12.742;2023-02-15T08:06:02;0.10;;;0.00;;
36279;SDS011;22317;47.936;12.742;2023-02-15T08:08:28;0.00;;;0.00;;
36279;SDS011;22317;47.936;12.742;2023-02-15T08:10:57;0.00;;;0.00;;
36279;SDS011;22317;47.936;12.742;2023-02-15T08:13:46;0.00;;;0.00;;
36279;SDS011;22317;47.936;12.742;2023-02-15T08:16:44;0.00;;;0.00;;
36279;SDS011;22317;47.936;12.742;2023-02-15T08:19:28;0.00;;;0.00;;
36279;SDS011;22317;47.936;12.742;2023-02-15T08:21:56;0.00;;;0.00;;
36279;SDS011;22317;47.936;12.742;2023-02-15T08:24:27;0.00;;;0.00;;
36279;SDS011;22317;47.936;12.742;2023-02-15T08:26:58;0.00;;;0.00;;
36279;SDS011;22317;47.936;12.742;2023-02-15T08:29:28;0.00;;;0.00;;
36279;SDS011;22317;47.936;12.742;2023-02-15T08:31:59;0.07;;;0.00;;
36279;SDS011;22317;47.936;12.742;2023-02-15T08:34:28;0.00;;;0.00;;
36279;SDS011;22317;47.936;12.742;2023-02-15T08:36:59;0.00;;;0.00;;
36279;SDS011;22317;47.936;12.742;2023-02-15T08:39:25;0.00;;;0.00;;
36279;SDS011;22317;47.936;12.742;2023-02-15T08:41:51;0.00;;;0.00;;
36279;SDS011;22317;47.936;12.742;2023-02-15T08:44:18;0.00;;;0.00;;
36279;SDS011;22317;47.936;12.742;2023-02-15T08:46:44;0.00;;;0.00;;
36279;SDS011;22317;47.936;12.742;2023-02-15T08:49:12;0.00;;;0.00;;
36279;SDS011;22317;47.936;12.742;2023-02-15T08:51:42;0.00;;;0.00;;
36279;SDS011;22317;47.936;12.742;2023-02-15T08:54:09;0.00;;;0.00;;
36279;SDS011;22317;47.936;12.742;2023-02-15T08:56:39;0.00;;;0.00;;
36279;SDS011;22317;47.936;12.742;2023-02-15T08:59:06;0.00;;;0.00;;
36279;SDS011;22317;47.936;12.742;2023-02-15T09:01:36;0.00;;;0.00;;
36279;SDS011;22317;47.936;12.742;2023-02-15T09:04:02;0.00;;;0.00;;
36279;SDS011;22317;47.936;12.742;2023-02-15T09:06:30;0.00;;;0.00;;
36279;SDS011;22317;47.936;12.742;2023-02-15T09:08:56;0.00;;;0.00;;
36279;SDS011;22317;47.936;12.742;2023-02-15T09:11:26;0.00;;;0.00;;
36279;SDS011;22317;47.936;12.742;2023-02-15T09:13:57;0.00;;;0.00;;
36279;SDS011;22317;47.936;12.742;2023-02-15T09:16:31;0.00;;;0.00;;
36279;SDS011;22317;47.936;12.742;2023-02-15T09:18:59;0.00;;;0.00;;
36279;SDS011;22317;47.936;12.742;2023-02-15T09:21:32;0.00;;;0.00;;
36279;SDS011;22317;47.936;12.742;2023-02-15T09:24:03;0.00;;;0.00;;
36279;SDS011;22317;47.936;12.742;2023-02-15T09:26:31;0.00;;;0.00;;
36279;SDS011;22317;47.936;12.742;2023-02-15T09:29:00;0.00;;;0.00;;
36279;SDS011;22317;47.936;12.742;2023-02-15T09:31:28;0.00;;;0.00;;
36279;SDS011;22317;47.936;12.742;2023-02-15T09:33:57;0.00;;;0.00;;
36279;SDS011;22317;47.936;12.742;2023-02-15T09:36:33;0.00;;;0.00;;
36279;SDS011;22317;47.936;12.742;2023-02-15T09:55:57;0.00;;;0.00;;
36279;SDS011;22317;47.936;12.742;2023-02-15T10:23:03;0.00;;;0.00;;
36279;SDS011;22317;47.936;12.742;2023-02-15T10:28:49;0.00;;;0.00;;
36279;SDS011;22317;47.936;12.742;2023-02-15T10:31:22;0.00;;;0.00;;
36279;SDS011;22317;47.936;12.742;2023-02-15T10:42:42;0.00;;;0.00;;
36279;SDS011;22317;47.936;12.742;2023-02-15T11:01:37;0.00;;;0.00;;
36279;SDS011;22317;47.936;12.742;2023-02-15T11:07:02;0.00;;;0.00;;
36279;SDS011;22317;47.936;12.742;2023-02-15T11:09:37;0.00;;;0.00;;
36279;SDS011;22317;47.936;12.742;2023-02-15T11:12:13;0.00;;;0.00;;
36279;SDS011;22317;47.936;12.742;2023-02-15T11:14:49;0.00;;;0.00;;
36279;SDS011;22317;47.936;12.742;2023-02-15T11:17:22;0.00;;;0.00;;
36279;SDS011;22317;47.936;12.742;2023-02-15T11:22:33;0.00;;;0.00;;
36279;SDS011;22317;47.936;12.742;2023-02-15T11:24:59;0.00;;;0.00;;
36279;SDS011;22317;47.936;12.742;2023-02-15T11:27:31;0.00;;;0.00;;
36279;SDS011;22317;47.936;12.742;2023-02-15T11:30:02;0.00;;;0.00;;
36279;SDS011;22317;47.936;12.742;2023-02-15T11:32:37;0.00;;;0.00;;
36279;SDS011;22317;47.936;12.742;2023-02-15T11:37:45;0.00;;;0.00;;
36279;SDS011;22317;47.936;12.742;2023-02-15T11:40:22;0.00;;;0.00;;
36279;SDS011;22317;47.936;12.742;2023-02-15T11:42:51;0.00;;;0.00;;
36279;SDS011;22317;47.936;12.742;2023-02-15T11:45:33;0.00;;;0.00;;
36279;SDS011;22317;47.936;12.742;2023-02-15T11:48:00;0.00;;;0.00;;
36279;SDS011;22317;47.936;12.742;2023-02-15T11:50:33;0.00;;;0.00;;
36279;SDS011;22317;47.936;12.742;2023-02-15T11:53:06;0.00;;;0.00;;
36279;SDS011;22317;47.936;12.742;2023-02-15T11:55:41;0.00;;;0.00;;
36279;SDS011;22317;47.936;12.742;2023-02-15T12:01:15;0.00;;;0.00;;
36279;SDS011;22317;47.936;12.742;2023-02-15T12:03:55;0.00;;;0.00;;
36279;SDS011;22317;47.936;12.742;2023-02-15T12:06:33;0.00;;;0.00;;
36279;SDS011;22317;47.936;12.742;2023-02-15T12:09:09;0.00;;;0.00;;
36279;SDS011;22317;47.936;12.742;2023-02-15T12:15:04;0.00;;;0.00;;
36279;SDS011;22317;47.936;12.742;2023-02-15T12:17:50;0.00;;;0.00;;
36279;SDS011;22317;47.936;12.742;2023-02-15T12:22:48;0.00;;;0.00;;
36279;SDS011;22317;47.936;12.742;2023-02-15T12:28:34;0.00;;;0.00;;
36279;SDS011;22317;47.936;12.742;2023-02-15T12:31:03;0.00;;;0.00;;
36279;SDS011;22317;47.936;12.742;2023-02-15T12:33:36;0.00;;;0.00;;
36279;SDS011;22317;47.936;12.742;2023-02-15T12:36:21;0.00;;;0.00;;
36279;SDS011;22317;47.936;12.742;2023-02-15T12:41:37;0.00;;;0.00;;
36279;SDS011;22317;47.936;12.742;2023-02-15T12:44:19;0.00;;;0.00;;
36279;SDS011;22317;47.936;12.742;2023-02-15T12:47:04;0.00;;;0.00;;
36279;SDS011;22317;47.936;12.742;2023-02-15T12:49:43;0.00;;;0.00;;
36279;SDS011;22317;47.936;12.742;2023-02-15T12:54:47;0.00;;;0.00;;
36279;SDS011;22317;47.936;12.742;2023-02-15T12:59:55;0.00;;;0.00;;
36279;SDS011;22317;47.936;12.742;2023-02-15T13:05:10;0.00;;;0.00;;
36279;SDS011;22317;47.936;12.742;2023-02-15T13:08:02;0.00;;;0.00;;
36279;SDS011;22317;47.936;12.742;2023-02-15T13:10:37;0.00;;;0.00;;
36279;SDS011;22317;47.936;12.742;2023-02-15T13:13:11;0.00;;;0.00;;
36279;SDS011;22317;47.936;12.742;2023-02-15T13:15:47;0.00;;;0.00;;
36279;SDS011;22317;47.936;12.742;2023-02-15T13:18:28;0.00;;;0.00;;
36279;SDS011;22317;47.936;12.742;2023-02-15T13:20:54;0.00;;;0.00;;
36279;SDS011;22317;47.936;12.742;2023-02-15T13:25:54;0.00;;;0.00;;
36279;SDS011;22317;47.936;12.742;2023-02-15T13:28:24;0.00;;;0.00;;
36279;SDS011;22317;47.936;12.742;2023-02-15T13:30:57;0.00;;;0.00;;
36279;SDS011;22317;47.936;12.742;2023-02-15T13:33:29;0.00;;;0.00;;
36279;SDS011;22317;47.936;12.742;2023-02-15T13:36:21;0.00;;;0.00;;
36279;SDS011;22317;47.936;12.742;2023-02-15T14:03:11;0.00;;;0.00;;
36279;SDS011;22317;47.936;12.742;2023-02-15T14:08:32;0.00;;;0.00;;
36279;SDS011;22317;47.936;12.742;2023-02-15T14:11:26;0.00;;;0.00;;
36279;SDS011;22317;47.936;12.742;2023-02-15T14:17:18;0.00;;;0.00;;
36279;SDS011;22317;47.936;12.742;2023-02-15T14:19:57;0.00;;;0.00;;
36279;SDS011;22317;47.936;12.742;2023-02-15T14:30:34;0.00;;;0.00;;
36279;SDS011;22317;47.936;12.742;2023-02-15T14:35:50;0.00;;;0.00;;
36279;SDS011;22317;47.936;12.742;2023-02-15T14:44:02;0.00;;;0.00;;
36279;SDS011;22317;47.936;12.742;2023-02-15T14:49:25;0.00;;;0.00;;
36279;SDS011;22317;47.936;12.742;2023-02-15T14:51:54;0.00;;;0.00;;
36279;SDS011;22317;47.936;12.742;2023-02-15T14:59:27;0.00;;;0.00;;
36279;SDS011;22317;47.936;12.742;2023-02-15T15:07:44;0.00;;;0.00;;
36279;SDS011;22317;47.936;12.742;2023-02-15T15:15:32;0.00;;;0.00;;
36279;SDS011;22317;47.936;12.742;2023-02-15T15:18:10;0.00;;;0.00;;
36279;SDS011;22317;47.936;12.742;2023-02-15T15:21:08;0.00;;;0.00;;
36279;SDS011;22317;47.936;12.742;2023-02-15T15:23:43;0.00;;;0.00;;
36279;SDS011;22317;47.936;12.742;2023-02-15T15:26:29;0.00;;;0.00;;
36279;SDS011;22317;47.936;12.742;2023-02-15T15:28:59;0.00;;;0.00;;
36279;SDS011;22317;47.936;12.742;2023-02-15T15:47:42;0.00;;;0.00;;
36279;SDS011;22317;47.936;12.742;2023-02-15T15:50:17;0.00;;;0.00;;
36279;SDS011;22317;47.936;12.742;2023-02-15T15:52:49;0.00;;;0.00;;
36279;SDS011;22317;47.936;12.742;2023-02-15T15:55:18;0.00;;;0.00;;
36279;SDS011;22317;47.936;12.742;2023-02-15T15:57:47;0.00;;;0.00;;
36279;SDS011;22317;47.936;12.742;2023-02-15T16:02:57;0.00;;;0.00;;
36279;SDS011;22317;47.936;12.742;2023-02-15T16:05:23;0.00;;;0.00;;
36279;SDS011;22317;47.936;12.742;2023-02-15T16:07:49;0.00;;;0.00;;
36279;SDS011;22317;47.936;12.742;2023-02-15T16:10:22;0.00;;;0.00;;
36279;SDS011;22317;47.936;12.742;2023-02-15T16:12:53;0.00;;;0.00;;
36279;SDS011;22317;47.936;12.742;2023-02-15T16:15:21;0.00;;;0.00;;
36279;SDS011;22317;47.936;12.742;2023-02-15T16:17:50;0.00;;;0.00;;
36279;SDS011;22317;47.936;12.742;2023-02-15T16:22:57;0.03;;;0.00;;
36279;SDS011;22317;47.936;12.742;2023-02-15T16:28:11;0.00;;;0.00;;
36279;SDS011;22317;47.936;12.742;2023-02-15T16:30:38;0.00;;;0.00;;
36279;SDS011;22317;47.936;12.742;2023-02-15T16:35:38;0.00;;;0.00;;
36279;SDS011;22317;47.936;12.742;2023-02-15T16:38:08;0.00;;;0.00;;
36279;SDS011;22317;47.936;12.742;2023-02-15T16:41:09;0.00;;;0.00;;
36279;SDS011;22317;47.936;12.742;2023-02-15T16:43:28;0.00;;;0.00;;
36279;SDS011;22317;47.936;12.742;2023-02-15T16:46:30;0.00;;;0.00;;
36279;SDS011;22317;47.936;12.742;2023-02-15T16:49:24;0.00;;;0.00;;
36279;SDS011;22317;47.936;12.742;2023-02-15T16:54:26;0.00;;;0.00;;
36279;SDS011;22317;47.936;12.742;2023-02-15T16:56:53;0.00;;;0.00;;
36279;SDS011;22317;47.936;12.742;2023-02-15T16:59:31;0.00;;;0.00;;
36279;SDS011;22317;47.936;12.742;2023-02-15T17:02:00;0.10;;;0.10;;
36279;SDS011;22317;47.936;12.742;2023-02-15T17:04:31;0.00;;;0.00;;
36279;SDS011;22317;47.936;12.742;2023-02-15T17:07:04;0.00;;;0.00;;
36279;SDS011;22317;47.936;12.742;2023-02-15T17:09:40;0.00;;;0.00;;
36279;SDS011;22317;47.936;12.742;2023-02-15T17:15:29;0.00;;;0.00;;
36279;SDS011;22317;47.936;12.742;2023-02-15T17:18:02;0.00;;;0.00;;
36279;SDS011;22317;47.936;12.742;2023-02-15T17:20:31;0.00;;;0.00;;
36279;SDS011;22317;47.936;12.742;2023-02-15T17:22:59;0.00;;;0.00;;
36279;SDS011;22317;47.936;12.742;2023-02-15T17:25:38;0.20;;;0.20;;
36279;SDS011;22317;47.936;12.742;2023-02-15T17:28:05;0.00;;;0.00;;
36279;SDS011;22317;47.936;12.742;2023-02-15T17:30:42;0.00;;;0.00;;
36279;SDS011;22317;47.936;12.742;2023-02-15T17:38:29;0.10;;;0.10;;
36279;SDS011;22317;47.936;12.742;2023-02-15T17:40:55;0.00;;;0.00;;
36279;SDS011;22317;47.936;12.742;2023-02-15T17:43:22;0.10;;;0.10;;
36279;SDS011;22317;47.936;12.742;2023-02-15T17:45:49;0.10;;;0.10;;
36279;SDS011;22317;47.936;12.742;2023-02-15T17:48:32;0.20;;;0.20;;
36279;SDS011;22317;47.936;12.742;2023-02-15T17:51:00;0.47;;;0.47;;
36279;SDS011;22317;47.936;12.742;2023-02-15T17:53:27;0.30;;;0.30;;
36279;SDS011;22317;47.936;12.742;2023-02-15T17:55:54;0.30;;;0.30;;
36279;SDS011;22317;47.936;12.742;2023-02-15T17:58:20;0.53;;;0.53;;
36279;SDS011;22317;47.936;12.742;2023-02-15T18:00:50;0.23;;;0.17;;
36279;SDS011;22317;47.936;12.742;2023-02-15T18:06:27;0.20;;;0.20;;
36279;SDS011;22317;47.936;12.742;2023-02-15T18:09:12;0.20;;;0.20;;
36279;SDS011;22317;47.936;12.742;2023-02-15T18:11:58;0.30;;;0.30;;
36279;SDS011;22317;47.936;12.742;2023-02-15T18:14:25;0.20;;;0.20;;
36279;SDS011;22317;47.936;12.742;2023-02-15T18:16:51;0.13;;;0.10;;
36279;SDS011;22317;47.936;12.742;2023-02-15T18:19:19;1.50;;;1.20;;
36279;SDS011;22317;47.936;12.742;2023-02-15T18:21:47;0.73;;;0.73;;
36279;SDS011;22317;47.936;12.742;2023-02-15T18:24:14;1.67;;;1.30;;
36279;SDS011;22317;47.936;12.742;2023-02-15T18:26:41;0.93;;;0.83;;
36279;SDS011;22317;47.936;12.742;2023-02-15T18:29:07;0.77;;;0.77;;
36279;SDS011;22317;47.936;12.742;2023-02-15T18:31:33;0.40;;;0.30;;
36279;SDS011;22317;47.936;12.742;2023-02-15T18:33:59;0.00;;;0.00;;
36279;SDS011;22317;47.936;12.742;2023-02-15T18:36:39;0.70;;;0.70;;
36279;SDS011;22317;47.936;12.742;2023-02-15T18:39:51;0.50;;;0.40;;
36279;SDS011;22317;47.936;12.742;2023-02-15T18:44:47;1.73;;;1.43;;
36279;SDS011;22317;47.936;12.742;2023-02-15T18:47:19;1.00;;;0.90;;
36279;SDS011;22317;47.936;12.742;2023-02-15T18:49:45;1.00;;;0.77;;
36279;SDS011;22317;47.936;12.742;2023-02-15T18:52:18;0.10;;;0.10;;
36279;SDS011;22317;47.936;12.742;2023-02-15T18:54:46;0.10;;;0.10;;
36279;SDS011;22317;47.936;12.742;2023-02-15T18:57:14;0.20;;;0.20;;
36279;SDS011;22317;47.936;12.742;2023-02-15T18:59:40;0.70;;;0.50;;
36279;SDS011;22317;47.936;12.742;2023-02-15T19:02:11;1.27;;;1.10;;
36279;SDS011;22317;47.936;12.742;2023-02-15T19:04:41;1.70;;;1.27;;